createdAt,value
2019-01-14T00:02:50.411Z,0.40
2019-01-14T00:05:19.634Z,0.40
2019-01-14T00:07:48.825Z,0.40
2019-01-14T00:10:18.057Z,0.50
2019-01-14T00:12:47.298Z,0.40
2019-01-14T00:18:25.243Z,0.40
2019-01-14T00:20:59.593Z,0.80
2019-01-14T00:23:28.798Z,1.07
2019-01-14T00:25:58.345Z,0.30
2019-01-14T00:28:27.608Z,0.37
2019-01-14T00:30:57.273Z,0.40
2019-01-14T00:33:32.038Z,0.80
2019-01-14T00:36:01.364Z,0.60
2019-01-14T00:38:31.792Z,0.50
2019-01-14T00:41:04.481Z,0.70
2019-01-14T00:43:33.691Z,0.57
2019-01-14T00:46:06.476Z,0.40
2019-01-14T00:48:35.672Z,0.50
2019-01-14T00:51:06.720Z,0.53
2019-01-14T00:53:37.692Z,0.67
2019-01-14T00:56:06.884Z,0.90
2019-01-14T01:01:55.553Z,0.30
2019-01-14T01:05:04.492Z,0.30
2019-01-14T01:07:48.231Z,0.47
2019-01-14T01:10:44.233Z,0.27
2019-01-14T01:13:13.592Z,0.73
2019-01-14T01:16:03.551Z,0.50
2019-01-14T01:18:32.876Z,0.23
2019-01-14T01:21:02.221Z,0.30
2019-01-14T01:23:31.482Z,0.40
2019-01-14T01:26:00.730Z,0.30
2019-01-14T01:31:45.379Z,0.20
2019-01-14T01:40:30.804Z,1.03
2019-01-14T01:43:26.759Z,0.37
2019-01-14T01:49:10.433Z,1.40
2019-01-14T01:58:53.322Z,0.30
2019-01-14T02:01:45.842Z,0.20
2019-01-14T02:04:20.059Z,1.00
2019-01-14T02:06:49.365Z,0.40
2019-01-14T02:09:18.827Z,0.33
2019-01-14T02:11:50.276Z,0.30
2019-01-14T02:17:30.975Z,0.67
2019-01-14T02:21:14.915Z,0.33
2019-01-14T02:23:37.803Z,0.23
2019-01-14T02:27:07.860Z,0.33
2019-01-14T02:29:41.479Z,0.67
2019-01-14T02:32:36.032Z,0.77
2019-01-14T02:38:33.087Z,0.70
2019-01-14T02:47:25.712Z,2.33
2019-01-14T02:49:54.960Z,0.83
2019-01-14T02:55:38.800Z,0.70
2019-01-14T02:58:08.400Z,1.60
2019-01-14T03:08:48.456Z,1.47
2019-01-14T03:14:08.473Z,1.00
2019-01-14T03:17:37.677Z,0.70
2019-01-14T03:20:24.461Z,1.53
2019-01-14T03:23:32.042Z,1.37
2019-01-14T03:26:01.227Z,2.30
2019-01-14T03:28:50.968Z,1.47
2019-01-14T03:35:18.347Z,1.50
2019-01-14T03:38:22.255Z,1.30
2019-01-14T03:40:51.463Z,3.17
2019-01-14T03:43:46.406Z,2.30
2019-01-14T03:46:41.267Z,1.73
2019-01-14T03:49:11.157Z,2.30
2019-01-14T03:51:59.536Z,3.17
2019-01-14T04:00:56.288Z,1.30
2019-01-14T04:04:04.930Z,3.40
2019-01-14T04:06:34.207Z,0.97
2019-01-14T04:12:17.854Z,1.00
2019-01-14T04:15:06.288Z,2.30
2019-01-14T04:20:32.346Z,2.20
2019-01-14T04:23:07.836Z,1.00
2019-01-14T04:28:43.776Z,1.57
2019-01-14T04:33:51.448Z,2.23
2019-01-14T04:42:28.918Z,2.60
2019-01-14T04:48:42.330Z,2.43
2019-01-14T04:54:26.305Z,2.30
2019-01-14T04:57:40.859Z,1.63
2019-01-14T05:00:48.269Z,4.13
2019-01-14T05:06:27.349Z,3.90
2019-01-14T05:12:30.307Z,2.37
2019-01-14T05:23:38.502Z,1.47
2019-01-14T05:26:33.688Z,3.07
2019-01-14T05:33:19.046Z,3.10
2019-01-14T05:39:17.484Z,3.13
2019-01-14T05:47:59.622Z,3.93
2019-01-14T05:51:03.480Z,2.97
2019-01-14T05:53:51.712Z,2.03
2019-01-14T05:56:59.172Z,2.93
2019-01-14T05:59:30.974Z,2.50
2019-01-14T06:08:42.168Z,2.73
2019-01-14T06:12:02.234Z,2.47
2019-01-14T06:17:34.154Z,1.30
2019-01-14T06:20:33.197Z,1.63
2019-01-14T06:23:02.532Z,3.23
2019-01-14T06:25:31.821Z,3.30
2019-01-14T06:29:15.060Z,1.47
2019-01-14T06:32:10.688Z,4.10
2019-01-14T06:35:08.262Z,3.20
2019-01-14T06:37:59.143Z,4.30
2019-01-14T06:41:03.119Z,3.17
2019-01-14T06:43:22.038Z,1.50
2019-01-14T06:45:51.290Z,1.97
2019-01-14T06:48:20.534Z,4.20
2019-01-14T06:50:49.737Z,2.23
2019-01-14T06:53:18.951Z,3.33
2019-01-14T06:55:48.143Z,2.23
2019-01-14T06:58:17.370Z,3.80
2019-01-14T07:04:14.186Z,1.60
2019-01-14T07:06:43.377Z,3.10
2019-01-14T07:09:12.609Z,2.17
2019-01-14T07:14:32.358Z,3.20
2019-01-14T07:17:01.934Z,2.03
2019-01-14T07:19:31.187Z,4.07
2019-01-14T07:22:00.417Z,2.80
2019-01-14T07:24:29.761Z,2.03
2019-01-14T07:26:59.034Z,3.43
2019-01-14T07:29:31.830Z,3.87
2019-01-14T07:32:03.795Z,4.63
2019-01-14T07:34:36.568Z,3.07
2019-01-14T07:37:05.903Z,2.77
2019-01-14T07:39:36.862Z,5.13
2019-01-14T07:44:57.802Z,1.60
2019-01-14T07:47:59.989Z,4.70
2019-01-14T07:51:04.640Z,3.73
2019-01-14T07:59:25.899Z,3.63
2019-01-14T08:01:57.740Z,3.63
2019-01-14T08:04:29.251Z,3.57
2019-01-14T08:06:58.454Z,4.57
2019-01-14T08:09:27.658Z,3.33
2019-01-14T08:14:52.459Z,2.60
2019-01-14T08:17:28.842Z,4.23
2019-01-14T08:19:58.232Z,4.93
2019-01-14T08:22:27.430Z,2.93
2019-01-14T08:24:57.070Z,2.20
2019-01-14T08:27:26.422Z,4.27
2019-01-14T08:29:55.648Z,9.97
2019-01-14T08:32:24.830Z,9.03
2019-01-14T08:35:14.422Z,3.80
2019-01-14T08:38:02.700Z,4.40
2019-01-14T08:40:32.210Z,4.37
2019-01-14T08:43:01.472Z,6.93
2019-01-14T08:45:34.139Z,4.17
2019-01-14T08:48:03.337Z,2.90
2019-01-14T08:50:32.658Z,3.30
2019-01-14T08:53:46.499Z,3.07
2019-01-14T08:56:15.769Z,4.73
2019-01-14T08:58:47.991Z,2.30
2019-01-14T09:01:38.012Z,4.13
2019-01-14T09:04:07.329Z,3.70
2019-01-14T09:09:34.923Z,4.03
2019-01-14T09:12:04.133Z,5.23
2019-01-14T09:14:33.375Z,5.13
2019-01-14T09:17:02.662Z,4.00
2019-01-14T09:19:31.890Z,5.27
2019-01-14T09:22:01.042Z,4.37
2019-01-14T09:24:30.252Z,3.27
2019-01-14T09:26:59.446Z,2.67
2019-01-14T09:29:29.011Z,4.03
2019-01-14T09:34:48.092Z,3.33
2019-01-14T09:37:17.695Z,4.30
2019-01-14T09:39:47.202Z,3.70
2019-01-14T09:42:16.390Z,4.20
2019-01-14T09:44:45.599Z,4.60
2019-01-14T09:47:14.801Z,2.90
2019-01-14T09:49:45.595Z,9.33
2019-01-14T09:52:14.977Z,4.60
2019-01-14T09:54:44.335Z,2.57
2019-01-14T09:57:13.541Z,4.53
2019-01-14T09:59:42.801Z,5.03
2019-01-14T10:02:12.029Z,3.23
2019-01-14T10:04:41.641Z,4.17
2019-01-14T10:07:10.869Z,3.33
2019-01-14T10:09:40.111Z,2.93
2019-01-14T10:12:23.494Z,6.07
2019-01-14T10:14:40.216Z,3.63
2019-01-14T10:19:49.303Z,3.10
2019-01-14T10:22:18.769Z,2.70
2019-01-14T10:24:50.986Z,3.30
2019-01-14T10:27:20.217Z,2.00
2019-01-14T10:29:49.445Z,3.83
2019-01-14T10:32:18.634Z,2.80
2019-01-14T10:34:47.845Z,3.27
2019-01-14T10:37:22.758Z,4.07
2019-01-14T10:39:48.092Z,3.60
2019-01-14T10:42:17.285Z,4.60
2019-01-14T10:44:46.819Z,2.60
2019-01-14T10:47:16.079Z,2.33
2019-01-14T10:49:45.349Z,3.17
2019-01-14T10:52:14.582Z,4.40
2019-01-14T10:54:43.760Z,3.10
2019-01-14T10:57:12.989Z,2.83
2019-01-14T10:59:42.239Z,3.07
2019-01-14T11:02:11.440Z,3.03
2019-01-14T11:04:40.651Z,3.40
2019-01-14T11:07:09.866Z,2.37
2019-01-14T11:09:39.047Z,4.23
2019-01-14T11:12:08.298Z,5.57
2019-01-14T11:14:37.838Z,3.03
2019-01-14T11:17:07.225Z,2.47
2019-01-14T11:19:36.406Z,2.90
2019-01-14T11:27:54.568Z,10.50
2019-01-14T11:30:26.132Z,5.90
2019-01-14T11:32:55.337Z,7.50
2019-01-14T11:35:24.903Z,3.30
2019-01-14T11:37:54.115Z,2.83
2019-01-14T11:40:29.263Z,5.60
2019-01-14T11:42:58.511Z,6.27
2019-01-14T11:45:30.396Z,2.70
2019-01-14T11:47:59.607Z,3.67
2019-01-14T11:50:28.795Z,3.73
2019-01-14T11:52:57.982Z,3.73
2019-01-14T11:55:27.191Z,4.37
2019-01-14T11:57:56.704Z,3.50
2019-01-14T12:00:26.912Z,4.73
2019-01-14T12:02:56.455Z,4.80
2019-01-14T12:05:25.660Z,4.07
2019-01-14T12:07:55.163Z,4.07
2019-01-14T12:13:20.713Z,2.87
2019-01-14T12:16:08.854Z,2.40
2019-01-14T12:18:38.055Z,6.97
2019-01-14T12:21:07.261Z,4.97
2019-01-14T12:23:36.446Z,7.30
2019-01-14T12:26:05.718Z,3.73
2019-01-14T12:28:34.912Z,5.10
2019-01-14T12:31:04.147Z,3.27
2019-01-14T12:33:33.356Z,1.73
2019-01-14T12:36:02.538Z,3.40
2019-01-14T12:38:31.778Z,1.73
2019-01-14T12:41:00.992Z,4.17
2019-01-14T12:43:30.308Z,3.40
2019-01-14T12:46:00.311Z,3.93
2019-01-14T12:48:29.970Z,4.40
2019-01-14T12:50:59.191Z,3.13
2019-01-14T12:53:28.431Z,2.60
2019-01-14T12:55:58.171Z,6.53
2019-01-14T12:58:27.374Z,3.27
2019-01-14T13:00:56.839Z,4.00
2019-01-14T13:03:26.025Z,4.50
2019-01-14T13:05:55.239Z,4.43
2019-01-14T13:08:24.420Z,3.57
2019-01-14T13:13:35.028Z,3.70
2019-01-14T13:16:04.313Z,2.60
2019-01-14T13:18:33.595Z,3.87
2019-01-14T13:21:02.868Z,3.90
2019-01-14T13:23:32.435Z,5.13
2019-01-14T13:26:03.103Z,5.20
2019-01-14T13:28:32.337Z,4.13
2019-01-14T13:31:01.580Z,8.53
2019-01-14T13:33:30.772Z,3.57
2019-01-14T13:35:59.954Z,3.03
2019-01-14T13:38:29.573Z,2.83
2019-01-14T13:40:58.758Z,3.57
2019-01-14T13:43:28.316Z,5.20
2019-01-14T13:45:57.530Z,6.13
2019-01-14T13:48:26.734Z,3.87
2019-01-14T13:50:55.948Z,4.57
2019-01-14T13:53:25.142Z,4.30
2019-01-14T13:56:13.421Z,6.60
2019-01-14T13:58:42.598Z,1.67
2019-01-14T14:01:11.829Z,2.03
2019-01-14T14:03:41.009Z,2.33
2019-01-14T14:06:10.583Z,1.37
2019-01-14T14:08:39.881Z,1.00
2019-01-14T14:11:09.091Z,2.50
2019-01-14T14:13:38.301Z,1.00
2019-01-14T14:16:07.609Z,2.43
2019-01-14T14:18:36.843Z,2.60
2019-01-14T14:21:21.334Z,1.17
2019-01-14T14:23:37.453Z,1.13
2019-01-14T14:26:25.914Z,0.60
2019-01-14T14:28:57.069Z,1.83
2019-01-14T14:31:33.180Z,1.00
2019-01-14T14:34:21.294Z,0.80
2019-01-14T14:36:50.515Z,0.90
2019-01-14T14:39:19.806Z,0.53
2019-01-14T14:41:49.327Z,1.43
2019-01-14T14:44:18.933Z,1.07
2019-01-14T14:46:48.112Z,1.20
2019-01-14T14:49:17.339Z,0.97
2019-01-14T14:51:46.511Z,1.70
2019-01-14T14:54:15.805Z,1.07
2019-01-14T14:56:44.993Z,1.40
2019-01-14T14:59:14.217Z,0.73
2019-01-14T15:01:43.674Z,0.57
2019-01-14T15:04:12.869Z,1.27
2019-01-14T15:06:42.048Z,1.17
2019-01-14T15:09:31.682Z,1.17
2019-01-14T15:12:01.338Z,0.80
2019-01-14T15:14:30.601Z,1.73
2019-01-14T15:17:00.128Z,1.50
2019-01-14T15:19:29.472Z,1.73
2019-01-14T15:21:58.679Z,1.10
2019-01-14T15:28:11.684Z,1.43
2019-01-14T15:31:23.601Z,1.00
2019-01-14T15:34:33.135Z,1.50
2019-01-14T15:40:54.979Z,1.10
2019-01-14T15:43:24.455Z,1.10
2019-01-14T15:45:53.689Z,1.33
2019-01-14T15:54:06.514Z,1.30
2019-01-14T15:56:37.061Z,2.30
2019-01-14T15:59:06.642Z,2.00
2019-01-14T16:01:35.853Z,3.60
2019-01-14T16:04:05.228Z,1.70
2019-01-14T16:06:34.547Z,1.93
2019-01-14T16:12:12.527Z,1.40
2019-01-14T16:14:41.698Z,2.23
2019-01-14T16:17:10.906Z,2.20
2019-01-14T16:19:40.151Z,2.03
2019-01-14T16:22:09.343Z,1.10
2019-01-14T16:24:38.587Z,2.47
2019-01-14T16:27:08.161Z,1.70
2019-01-14T16:29:37.315Z,1.10
2019-01-14T16:32:07.949Z,2.10
2019-01-14T16:34:37.792Z,1.80
2019-01-14T16:37:06.998Z,3.17
2019-01-14T16:39:36.194Z,2.70
2019-01-14T16:42:08.201Z,1.77
2019-01-14T16:44:37.445Z,4.37
2019-01-14T16:47:06.633Z,2.27
2019-01-14T16:49:35.967Z,4.30
2019-01-14T16:52:07.890Z,1.60
2019-01-14T16:54:37.507Z,2.30
2019-01-14T16:57:06.700Z,3.00
2019-01-14T16:59:35.878Z,4.83
2019-01-14T17:02:44.463Z,3.63
2019-01-14T17:05:53.097Z,4.73
2019-01-14T17:08:22.290Z,1.87
2019-01-14T17:10:51.510Z,3.73
2019-01-14T17:13:21.050Z,3.37
2019-01-14T17:15:50.460Z,2.20
2019-01-14T17:18:19.727Z,2.57
2019-01-14T17:20:49.115Z,2.10
2019-01-14T17:23:18.320Z,3.30
2019-01-14T17:25:47.508Z,3.10
2019-01-14T17:28:16.889Z,1.73
2019-01-14T17:31:05.502Z,1.47
2019-01-14T17:33:37.073Z,2.13
2019-01-14T17:36:06.290Z,2.13
2019-01-14T17:38:35.532Z,3.67
2019-01-14T17:41:04.801Z,1.80
2019-01-14T17:43:34.074Z,2.00
2019-01-14T17:46:05.561Z,2.20
2019-01-14T17:48:34.751Z,3.13
2019-01-14T17:51:04.028Z,3.23
2019-01-14T17:53:33.237Z,3.10
2019-01-14T17:56:02.635Z,2.77
2019-01-14T17:58:31.861Z,2.80
2019-01-14T18:01:01.076Z,2.93
2019-01-14T18:03:30.322Z,4.00
2019-01-14T18:05:59.494Z,3.13
2019-01-14T18:08:29.104Z,3.83
2019-01-14T18:11:01.810Z,2.63
2019-01-14T18:13:29.830Z,2.47
2019-01-14T18:15:59.295Z,2.40
2019-01-14T18:18:28.500Z,3.30
2019-01-14T18:20:58.010Z,4.27
2019-01-14T18:23:27.469Z,3.50
2019-01-14T18:26:10.984Z,3.70
2019-01-14T18:28:29.240Z,3.30
2019-01-14T18:30:58.808Z,1.90
2019-01-14T18:33:28.119Z,2.00
2019-01-14T18:35:58.881Z,1.83
2019-01-14T18:38:34.882Z,2.17
2019-01-14T18:41:23.296Z,3.50
2019-01-14T18:43:52.986Z,2.77
2019-01-14T18:46:24.808Z,3.67
2019-01-14T18:48:54.155Z,3.70
2019-01-14T18:51:25.103Z,2.00
2019-01-14T18:56:51.682Z,3.50
2019-01-14T19:02:11.163Z,2.83
2019-01-14T19:04:40.368Z,3.80
2019-01-14T19:07:09.681Z,3.07
2019-01-14T19:13:26.002Z,3.17
2019-01-14T19:18:32.586Z,4.37
2019-01-14T19:21:01.913Z,5.73
2019-01-14T19:26:40.069Z,3.20
2019-01-14T19:29:49.116Z,4.07
2019-01-14T19:32:46.257Z,4.43
2019-01-14T19:38:13.075Z,4.93
2019-01-14T19:40:45.856Z,6.63
2019-01-14T19:43:18.079Z,4.30
2019-01-14T19:46:29.359Z,4.17
2019-01-14T19:49:17.783Z,4.60
2019-01-14T19:52:00.139Z,3.77
2019-01-14T19:54:39.355Z,3.73
2019-01-14T19:57:27.535Z,3.50
2019-01-14T19:59:56.996Z,3.40
2019-01-14T20:02:26.232Z,3.03
2019-01-14T20:04:55.678Z,4.03
2019-01-14T20:07:25.305Z,4.87
2019-01-14T20:09:54.588Z,8.97
2019-01-14T20:12:25.588Z,3.97
2019-01-14T20:17:44.675Z,5.83
2019-01-14T20:20:13.971Z,5.47
2019-01-14T20:23:14.187Z,4.80
2019-01-14T20:25:33.189Z,5.47
2019-01-14T20:30:38.683Z,5.43
2019-01-14T20:33:07.917Z,6.20
2019-01-14T20:35:37.150Z,4.93
2019-01-14T20:38:06.351Z,5.40
2019-01-14T20:40:56.268Z,6.07
2019-01-14T20:43:25.491Z,6.30
2019-01-14T20:46:15.244Z,5.33
2019-01-14T20:48:47.451Z,6.17
2019-01-14T20:51:56.069Z,5.87
2019-01-14T20:54:28.089Z,6.47
2019-01-14T20:57:17.825Z,5.77
2019-01-14T20:59:49.905Z,6.10
2019-01-14T21:02:38.078Z,6.77
2019-01-14T21:08:06.631Z,9.47
2019-01-14T21:11:15.231Z,5.90
2019-01-14T21:13:52.642Z,7.03
2019-01-14T21:16:21.965Z,5.57
2019-01-14T21:18:51.426Z,6.27
2019-01-14T21:21:34.371Z,6.27
2019-01-14T21:26:41.782Z,5.40
2019-01-14T21:29:11.058Z,9.50
2019-01-14T21:31:40.342Z,5.17
2019-01-14T21:34:40.826Z,6.97
2019-01-14T21:36:59.885Z,7.67
2019-01-14T21:39:48.230Z,8.83
2019-01-14T21:42:18.113Z,5.20
2019-01-14T21:47:55.598Z,3.70
2019-01-14T21:53:33.961Z,7.53
2019-01-14T21:56:03.168Z,5.17
2019-01-14T21:58:32.395Z,5.43
2019-01-14T22:01:01.618Z,4.80
2019-01-14T22:03:30.866Z,4.77
2019-01-14T22:06:42.126Z,6.17
2019-01-14T22:09:12.113Z,7.90
2019-01-14T22:11:41.301Z,10.23
2019-01-14T22:17:09.735Z,7.83
2019-01-14T22:20:09.062Z,5.20
2019-01-14T22:22:38.496Z,6.57
2019-01-14T22:25:08.656Z,6.47
2019-01-14T22:27:40.437Z,6.60
2019-01-14T22:30:13.634Z,6.10
2019-01-14T22:35:38.628Z,5.80
2019-01-14T22:38:09.943Z,9.10
2019-01-14T22:40:40.950Z,10.30
2019-01-14T22:43:29.582Z,7.73
2019-01-14T22:46:19.736Z,6.33
2019-01-14T22:48:49.018Z,6.53
2019-01-14T22:51:29.670Z,7.07
2019-01-14T22:54:06.772Z,7.93
2019-01-14T22:59:48.038Z,6.23
2019-01-14T23:02:36.385Z,4.77
2019-01-14T23:05:06.338Z,5.43
2019-01-14T23:07:54.653Z,4.23
2019-01-14T23:10:26.986Z,13.97
2019-01-14T23:13:16.173Z,4.83
2019-01-14T23:18:53.257Z,8.03
2019-01-14T23:22:07.329Z,16.47
2019-01-14T23:24:36.629Z,22.43
2019-01-14T23:29:55.700Z,20.13
2019-01-14T23:32:24.924Z,13.03
2019-01-14T23:34:54.177Z,9.23
2019-01-14T23:37:23.396Z,15.63
2019-01-14T23:39:52.696Z,7.57
2019-01-14T23:48:50.060Z,5.43
2019-01-14T23:51:10.052Z,8.03
2019-01-14T23:56:34.508Z,4.27
